HKMO

Mombasa Moi International Airport

Mombasa, Kenya
METAR HKMO 221400Z 17013KT 9999 FEW024 BKN090 27/23 Q1014 NOSIG
Observed Flight Rules
Oct-22 @ 14:00 UTC (21 minutes ago) Visual Flight Rules
Wind Visibility Clouds
170° at 13 knots 10,000+ meters
  • Few at 2,400' AGL
  • Broken at 9,000' AGL
Temperatures Readings
Current 27°C / 81°F
Dewpoint 23°C / 73°F
Humidity 79%
Altimeter 29.94" Hg
Pressure 1014 hPa
Elevation 55
METAR HKMO 221400Z 17013KT 9999 FEW024 BKN090 27/23 Q1014 NOSIG
Observed Flight Rules
Oct-22 @ 14:00 UTC
(21 minutes ago)
VFR
Wind Visibility
170° at 13 knots 10,000+ meters
Clouds
  • Few at 2,400' AGL
  • Broken at 9,000' AGL
Temperature Dewpoint
27°C / 81°F 23°C / 73°F
Humidity Altimeter Pressure
79% 29.94" Hg 1014 hPa